Time;durP1;ratioP1;P1;durP2;ratioP2;P2;SDS_P1;SDS_P2;PMS_P1;PMS_P2;Temp;Humidity;BMP_temperature;BMP_pressure;BME280_temperature;BME280_humidity;BME280_pressure;Samples;Min_cycle;Max_cycle;Signal;HPM_P1;HPM_P2
2023/08/14 00:01:00;;;;;;;12.43;8.23;;;20.20;80.50;;;;;;6250314;23;20000;-79
2023/08/14 00:03:26;;;;;;;13.82;9.00;;;20.20;80.10;;;;;;6250193;23;20011;-79
2023/08/14 00:05:52;;;;;;;12.20;8.55;;;20.20;78.90;;;;;;6249363;23;20016;-79
2023/08/14 00:08:17;;;;;;;13.32;8.82;;;20.20;79.00;;;;;;6250515;23;20298;-80
2023/08/14 00:10:43;;;;;;;14.45;9.80;;;20.20;78.10;;;;;;6250859;23;20000;-80
2023/08/14 00:13:09;;;;;;;16.13;9.20;;;20.20;77.30;;;;;;6250928;23;20042;-80
2023/08/14 00:15:34;;;;;;;15.52;8.50;;;20.10;76.10;;;;;;6251018;23;19996;-80
2023/08/14 00:18:00;;;;;;;14.38;9.07;;;20.00;74.50;;;;;;6250289;23;20011;-80
2023/08/14 00:20:25;;;;;;;12.07;8.65;;;19.90;72.40;;;;;;6249422;23;20004;-80
2023/08/14 00:22:51;;;;;;;16.92;9.93;;;20.00;72.70;;;;;;6250581;23;20261;-80
2023/08/14 00:25:16;;;;;;;15.43;9.50;;;20.00;71.70;;;;;;6250595;23;20004;-80
2023/08/14 00:27:42;;;;;;;14.18;9.75;;;20.00;70.80;;;;;;6249093;23;20000;-80
2023/08/14 00:30:07;;;;;;;15.60;9.20;;;20.10;70.40;;;;;;6250713;23;20023;-80
2023/08/14 00:32:33;;;;;;;14.52;10.32;;;20.20;70.10;;;;;;6251041;23;20004;-80
2023/08/14 00:34:59;;;;;;;13.05;8.70;;;20.20;70.80;;;;;;6250758;23;20007;-80
2023/08/14 00:37:39;;;;;;;12.25;8.75;;;20.30;71.10;;;;;;6249145;23;20007;-80
2023/08/14 00:40:07;;;;;;;12.52;8.73;;;20.30;72.20;;;;;;6250293;23;20053;-80
2023/08/14 00:42:32;;;;;;;14.77;10.00;;;20.50;73.50;;;;;;6250181;23;20079;-80
2023/08/14 00:44:58;;;;;;;14.93;8.48;;;20.50;76.30;;;;;;6250157;23;20035;-80
2023/08/14 00:47:23;;;;;;;12.50;9.23;;;20.50;76.90;;;;;;6247951;23;20063;-80
2023/08/14 00:49:49;;;;;;;12.50;9.10;;;20.60;78.40;;;;;;6249560;23;20254;-80
2023/08/14 00:52:15;;;;;;;13.80;9.23;;;20.70;79.40;;;;;;6248416;23;20004;-80
2023/08/14 00:54:41;;;;;;;16.17;9.95;;;20.70;79.40;;;;;;6250306;23;20042;-80
2023/08/14 00:57:06;;;;;;;13.02;9.85;;;20.70;80.10;;;;;;6249646;23;20391;-80
2023/08/14 00:59:32;;;;;;;12.85;8.68;;;20.60;78.90;;;;;;6249435;23;20007;-80
2023/08/14 01:01:58;;;;;;;15.43;9.57;;;20.60;78.30;;;;;;6222946;23;20412;-80
2023/08/14 01:04:23;;;;;;;12.65;9.35;;;20.60;80.10;;;;;;6250073;23;20087;-80
2023/08/14 01:06:49;;;;;;;14.20;9.35;;;20.60;79.70;;;;;;6247734;23;20000;-80
2023/08/14 01:09:15;;;;;;;14.88;9.20;;;20.60;78.50;;;;;;6249825;23;20358;-80
2023/08/14 01:11:54;;;;;;;14.20;10.85;;;20.60;77.90;;;;;;6250056;23;20075;-80
2023/08/14 01:14:31;;;;;;;15.38;10.73;;;20.40;79.30;;;;;;6249778;23;20334;-83
2023/08/14 01:17:05;;;;;;;14.43;10.43;;;20.20;77.80;;;;;;6248731;23;20005;-80
2023/08/14 01:19:36;;;;;;;;;;;19.90;73.70;;;;;;6250327;23;20054;-80
2023/08/14 01:22:14;;;;;;;20.98;12.80;;;19.70;69.60;;;;;;6248610;23;19900;-83
2023/08/14 01:24:55;;;;;;;12.63;8.93;;;19.50;66.20;;;;;;6238506;22;20020;-91
2023/08/14 01:27:22;;;;;;;12.07;9.10;;;19.30;67.40;;;;;;6249010;23;20018;-83
2023/08/14 01:29:58;;;;;;;12.32;8.50;;;19.10;64.90;;;;;;6249502;23;20027;-84
2023/08/14 01:32:23;;;;;;;15.95;7.70;;;19.00;63.00;;;;;;6222937;23;20316;-84
2023/08/14 01:34:50;;;;;;;15.20;8.32;;;18.90;63.60;;;;;;6249636;23;20027;-83
2023/08/14 01:37:30;;;;;;;12.10;7.57;;;18.70;62.40;;;;;;6222736;23;20311;-92
2023/08/14 01:40:06;;;;;;;11.30;7.90;;;18.60;61.30;;;;;;6222950;23;19996;-88
2023/08/14 01:42:37;;;;;;;10.05;6.60;;;18.50;60.40;;;;;;6222950;23;20008;-86
2023/08/14 01:45:09;;;;;;;8.65;5.47;;;18.50;59.60;;;;;;6248722;23;20269;-86
2023/08/14 01:47:40;;;;;;;11.05;6.63;;;18.50;59.10;;;;;;6249823;23;20016;-85
2023/08/14 01:50:07;;;;;;;10.85;7.25;;;18.50;59.50;;;;;;6248761;23;20075;-85
2023/08/14 01:52:33;;;;;;;9.57;6.43;;;18.50;59.90;;;;;;6248123;23;20001;-86
2023/08/14 01:55:02;;;;;;;9.32;6.35;;;18.50;60.00;;;;;;6249145;23;20015;-86
2023/08/14 01:57:28;;;;;;;10.30;6.80;;;18.30;60.30;;;;;;6249055;23;20004;-87
2023/08/14 01:59:54;;;;;;;8.50;5.75;;;18.20;59.30;;;;;;6249259;23;20008;-85
2023/08/14 02:02:19;;;;;;;10.95;6.55;;;18.20;59.30;;;;;;6221903;23;20083;-85
2023/08/14 02:04:45;;;;;;;12.43;8.65;;;18.20;58.20;;;;;;6248166;23;20061;-86
2023/08/14 02:07:10;;;;;;;9.98;5.82;;;18.20;58.30;;;;;;6247903;23;20001;-85
2023/08/14 02:09:36;;;;;;;7.70;5.75;;;18.20;57.30;;;;;;6249563;23;20011;-85
2023/08/14 02:12:03;;;;;;;9.43;5.72;;;18.20;57.90;;;;;;6249045;23;20001;-84
2023/08/14 02:14:29;;;;;;;11.68;6.38;;;18.10;58.30;;;;;;6279826;22;20000;-85
2023/08/14 02:16:54;;;;;;;9.90;5.47;;;18.10;57.80;;;;;;6280384;22;20015;-83
2023/08/14 02:19:20;;;;;;;10.05;6.88;;;18.10;57.10;;;;;;6280607;22;20010;-83
2023/08/14 02:21:49;;;;;;;11.07;6.05;;;18.10;57.00;;;;;;6252071;22;20008;-85
2023/08/14 02:24:15;;;;;;;7.15;5.85;;;18.10;56.90;;;;;;6279251;22;20087;-83
2023/08/14 02:26:40;;;;;;;13.20;8.38;;;18.10;56.90;;;;;;6252644;22;20034;-84
2023/08/14 02:29:06;;;;;;;13.07;7.70;;;18.10;57.20;;;;;;6279406;22;20007;-84
2023/08/14 02:31:31;;;;;;;11.40;6.28;;;18.10;56.80;;;;;;6279671;22;20002;-83
2023/08/14 02:34:01;;;;;;;8.68;6.40;;;18.00;56.00;;;;;;6279370;22;20004;-83
2023/08/14 02:36:27;;;;;;;7.68;6.13;;;18.10;56.10;;;;;;6278021;22;20008;-84
2023/08/14 02:38:53;;;;;;;12.48;8.02;;;18.10;56.40;;;;;;6279837;22;20031;-83
2023/08/14 02:41:19;;;;;;;9.60;7.25;;;18.10;56.60;;;;;;6279561;22;20384;-82
2023/08/14 02:43:45;;;;;;;10.18;6.47;;;18.00;56.00;;;;;;6251542;22;20012;-83
2023/08/14 02:46:10;;;;;;;15.02;6.18;;;18.00;56.00;;;;;;6253079;22;20104;-84
2023/08/14 02:48:36;;;;;;;10.98;6.97;;;18.00;56.10;;;;;;6280158;22;20007;-83
2023/08/14 02:51:01;;;;;;;8.45;6.03;;;18.00;56.20;;;;;;6278727;22;19995;-81
2023/08/14 02:53:27;;;;;;;14.93;5.72;;;17.90;56.10;;;;;;6280034;22;20003;-81
2023/08/14 02:55:53;;;;;;;11.35;5.97;;;17.90;56.50;;;;;;6281693;22;20269;-81
2023/08/14 02:58:21;;;;;;;11.02;6.03;;;17.80;56.70;;;;;;6281470;22;20018;-81
2023/08/14 03:00:48;;;;;;;7.82;5.18;;;17.70;56.80;;;;;;6281737;22;20110;-80
2023/08/14 03:03:14;;;;;;;8.57;5.70;;;17.70;57.10;;;;;;6281169;22;20122;-82
2023/08/14 03:05:40;;;;;;;8.60;5.82;;;17.60;57.30;;;;;;6280302;22;20018;-83
2023/08/14 03:08:06;;;;;;;8.90;5.80;;;17.50;56.90;;;;;;6254514;22;19999;-82
2023/08/14 03:10:32;;;;;;;11.38;5.60;;;17.50;56.60;;;;;;6281552;22;19996;-82
2023/08/14 03:12:57;;;;;;;9.43;6.53;;;17.50;56.50;;;;;;6281153;22;20049;-82
2023/08/14 03:15:23;;;;;;;9.80;6.47;;;17.40;56.50;;;;;;6280995;22;20011;-82
2023/08/14 03:17:49;;;;;;;7.88;5.47;;;17.40;55.80;;;;;;6281225;22;20000;-82
2023/08/14 03:20:14;;;;;;;10.88;6.38;;;17.40;56.50;;;;;;6281617;22;20353;-81
2023/08/14 03:22:40;;;;;;;7.65;5.70;;;17.40;56.10;;;;;;6252244;22;20094;-82
2023/08/14 03:25:06;;;;;;;16.25;7.28;;;17.40;56.20;;;;;;6282763;22;20406;-83
2023/08/14 03:27:32;;;;;;;12.23;7.70;;;17.30;56.20;;;;;;6281391;22;20026;-83
2023/08/14 03:29:57;;;;;;;10.18;7.13;;;17.30;55.60;;;;;;6281480;22;20015;-82
2023/08/14 03:32:23;;;;;;;13.82;6.85;;;17.30;55.40;;;;;;6281305;22;20000;-83
2023/08/14 03:34:49;;;;;;;8.77;5.53;;;17.30;55.50;;;;;;6280935;22;20121;-83
2023/08/14 03:37:14;;;;;;;10.68;7.90;;;17.30;55.30;;;;;;6279830;22;20000;-81
2023/08/14 03:39:40;;;;;;;11.70;7.57;;;17.30;55.00;;;;;;6281756;22;20007;-82
2023/08/14 03:42:06;;;;;;;13.25;9.70;;;17.40;54.50;;;;;;6281744;22;20000;-81
2023/08/14 03:44:31;;;;;;;13.73;8.60;;;17.40;54.70;;;;;;6280448;22;20003;-82
2023/08/14 03:46:57;;;;;;;11.73;6.93;;;17.40;54.60;;;;;;6281686;22;20265;-82
2023/08/14 03:49:28;;;;;;;10.23;8.38;;;17.40;54.50;;;;;;6280566;22;19996;-81
2023/08/14 03:51:56;;;;;;;11.40;8.00;;;17.40;54.70;;;;;;6280395;22;19996;-82
2023/08/14 03:54:22;;;;;;;12.85;7.85;;;17.40;54.70;;;;;;6280621;22;19995;-82
2023/08/14 03:56:47;;;;;;;8.23;6.22;;;17.40;54.70;;;;;;6281940;22;20010;-83
2023/08/14 03:59:13;;;;;;;9.85;6.45;;;17.40;54.50;;;;;;6280951;22;20000;-82
2023/08/14 04:01:42;;;;;;;12.73;6.97;;;17.40;54.20;;;;;;6280571;22;20008;-81
2023/08/14 04:04:08;;;;;;;8.50;5.93;;;17.50;54.20;;;;;;6280657;22;20268;-82
2023/08/14 04:06:35;;;;;;;9.18;5.40;;;17.50;54.50;;;;;;6280130;22;20002;-82
2023/08/14 04:09:02;;;;;;;13.70;7.63;;;17.50;54.60;;;;;;6280607;22;20114;-81
2023/08/14 04:11:28;;;;;;;9.15;7.10;;;17.50;54.40;;;;;;6281413;22;20256;-81
2023/08/14 04:13:54;;;;;;;12.55;7.05;;;17.60;54.50;;;;;;6280451;22;20059;-81
2023/08/14 04:16:19;;;;;;;11.63;7.68;;;17.60;54.60;;;;;;6280433;22;20317;-82
2023/08/14 04:18:45;;;;;;;9.20;5.93;;;17.60;54.40;;;;;;6281684;22;20053;-81
2023/08/14 04:21:11;;;;;;;8.45;5.15;;;17.60;54.70;;;;;;6279246;22;20015;-81
2023/08/14 04:23:36;;;;;;;10.30;6.05;;;17.60;55.00;;;;;;6281018;22;19999;-81
2023/08/14 04:26:02;;;;;;;6.90;5.25;;;17.60;55.00;;;;;;6279857;22;20018;-81
2023/08/14 04:28:27;;;;;;;10.98;7.43;;;17.60;55.00;;;;;;6281542;22;19998;-80
2023/08/14 04:30:53;;;;;;;9.65;6.07;;;17.60;55.00;;;;;;6280845;22;20029;-80
2023/08/14 04:33:19;;;;;;;12.85;8.30;;;17.60;54.80;;;;;;6280357;22;20004;-81
2023/08/14 04:35:44;;;;;;;15.45;7.53;;;17.60;54.90;;;;;;6277604;22;20033;-79
2023/08/14 04:38:10;;;;;;;10.38;6.60;;;17.70;54.50;;;;;;6280328;22;20126;-81
2023/08/14 04:40:36;;;;;;;11.07;7.45;;;17.70;54.50;;;;;;6280630;22;20007;-80
2023/08/14 04:43:02;;;;;;;7.75;5.25;;;17.80;54.70;;;;;;6253278;22;20357;-78
2023/08/14 04:45:28;;;;;;;8.23;4.80;;;17.80;55.20;;;;;;6278545;22;20015;-81
2023/08/14 04:47:53;;;;;;;7.05;4.90;;;17.70;55.50;;;;;;6280737;22;20073;-81
2023/08/14 04:50:19;;;;;;;7.40;3.50;;;17.70;56.30;;;;;;6280629;22;20006;-80
2023/08/14 04:52:44;;;;;;;7.90;3.90;;;17.60;56.70;;;;;;6278290;22;20046;-81
2023/08/14 04:55:10;;;;;;;7.30;4.55;;;17.60;56.30;;;;;;6280436;22;20011;-80
2023/08/14 04:57:35;;;;;;;5.75;3.85;;;17.60;56.10;;;;;;6254428;22;20007;-81
2023/08/14 05:00:01;;;;;;;9.05;4.45;;;17.70;56.30;;;;;;6280532;22;20246;-81
2023/08/14 05:02:28;;;;;;;6.88;4.60;;;17.60;56.60;;;;;;6280058;22;20373;-81
2023/08/14 05:04:54;;;;;;;7.65;4.45;;;17.70;56.60;;;;;;6280218;22;20030;-81
2023/08/14 05:07:20;;;;;;;7.32;4.20;;;17.70;56.40;;;;;;6278923;22;19996;-80
2023/08/14 05:09:48;;;;;;;6.60;4.60;;;17.70;56.60;;;;;;6279899;22;20000;-80
2023/08/14 05:12:13;;;;;;;9.15;4.32;;;17.80;57.10;;;;;;6252790;22;20084;-80
2023/08/14 05:14:40;;;;;;;7.45;5.25;;;17.80;57.30;;;;;;6252499;22;20023;-80
2023/08/14 05:17:06;;;;;;;7.88;4.28;;;17.90;57.70;;;;;;6280447;22;20375;-80
2023/08/14 05:19:31;;;;;;;8.13;4.30;;;17.90;57.50;;;;;;6278396;22;20014;-79
2023/08/14 05:21:57;;;;;;;7.15;4.38;;;18.00;57.90;;;;;;6277766;22;20007;-82
2023/08/14 05:24:23;;;;;;;7.50;3.70;;;18.00;58.20;;;;;;6279971;22;20018;-80
2023/08/14 05:26:49;;;;;;;6.60;4.90;;;18.10;59.70;;;;;;6253363;22;20036;-79
2023/08/14 05:29:14;;;;;;;10.60;4.50;;;18.10;60.40;;;;;;6280563;22;19995;-80
2023/08/14 05:31:40;;;;;;;6.50;4.57;;;18.20;60.00;;;;;;6280874;22;20045;-81
2023/08/14 05:34:05;;;;;;;11.73;4.57;;;18.30;61.00;;;;;;6252331;22;20329;-81
2023/08/14 05:36:31;;;;;;;9.30;4.88;;;18.30;61.30;;;;;;6278504;22;20008;-81
2023/08/14 05:38:56;;;;;;;8.52;4.88;;;18.40;61.50;;;;;;6278671;22;20011;-80
2023/08/14 05:41:22;;;;;;;8.98;4.65;;;18.50;63.20;;;;;;6278855;22;20007;-80
2023/08/14 05:43:48;;;;;;;7.63;5.43;;;18.50;64.40;;;;;;6278805;22;20003;-80
2023/08/14 05:46:15;;;;;;;6.78;4.93;;;18.60;65.40;;;;;;6252306;22;20392;-80
2023/08/14 05:48:40;;;;;;;6.28;4.28;;;18.60;63.90;;;;;;6280391;22;19996;-80
2023/08/14 05:51:06;;;;;;;8.35;5.15;;;18.80;65.40;;;;;;6278846;22;20015;-80
2023/08/14 05:53:32;;;;;;;10.50;4.47;;;18.90;65.70;;;;;;6280053;22;19995;-80
2023/08/14 05:55:57;;;;;;;9.75;4.28;;;19.10;66.70;;;;;;6278610;22;20075;-80
2023/08/14 05:58:23;;;;;;;7.30;3.80;;;19.20;69.30;;;;;;6278863;22;20421;-80
2023/08/14 06:00:49;;;;;;;7.78;4.15;;;19.40;72.40;;;;;;6278061;22;20003;-81
2023/08/14 06:03:15;;;;;;;8.23;4.80;;;19.50;75.60;;;;;;6279824;22;20000;-81
2023/08/14 06:05:41;;;;;;;6.70;4.68;;;19.50;75.10;;;;;;6276767;22;20019;-80
2023/08/14 06:08:07;;;;;;;12.02;7.97;;;19.40;73.10;;;;;;6277473;22;20089;-79
2023/08/14 06:10:32;;;;;;;8.98;5.97;;;19.40;74.10;;;;;;6252812;22;20004;-79
2023/08/14 06:12:58;;;;;;;8.93;5.18;;;19.30;74.40;;;;;;6280585;22;20075;-80
2023/08/14 06:15:25;;;;;;;7.60;4.30;;;19.20;74.40;;;;;;6252008;22;20053;-80
2023/08/14 06:17:50;;;;;;;6.75;4.57;;;19.20;73.50;;;;;;6251612;22;20010;-81
2023/08/14 06:20:16;;;;;;;7.68;4.35;;;19.30;74.00;;;;;;6279219;22;20041;-81
2023/08/14 06:22:46;;;;;;;8.18;4.20;;;19.40;74.20;;;;;;6252312;22;20030;-81
2023/08/14 06:25:13;;;;;;;8.43;5.18;;;19.50;74.80;;;;;;6279694;22;20425;-81
2023/08/14 06:27:39;;;;;;;8.48;4.90;;;19.50;75.50;;;;;;6282143;22;20045;-81
2023/08/14 06:30:10;;;;;;;6.95;4.10;;;19.60;74.30;;;;;;6281905;22;20415;-80
2023/08/14 06:32:37;;;;;;;6.15;4.00;;;19.70;73.30;;;;;;6281887;22;20023;-80
2023/08/14 06:35:03;;;;;;;7.57;3.63;;;19.80;75.50;;;;;;6255551;22;20007;-81
2023/08/14 06:37:29;;;;;;;8.27;4.63;;;20.00;77.30;;;;;;6280828;22;20003;-81
2023/08/14 06:39:54;;;;;;;8.07;4.25;;;20.20;80.50;;;;;;6281285;22;20079;-81
2023/08/14 06:42:20;;;;;;;8.38;4.43;;;20.40;82.40;;;;;;6281759;22;20365;-82
2023/08/14 06:44:45;;;;;;;7.93;4.55;;;20.60;83.30;;;;;;6282016;22;20261;-81
2023/08/14 06:47:11;;;;;;;12.15;5.20;;;20.70;83.80;;;;;;6282189;22;20344;-81
2023/08/14 06:49:40;;;;;;;8.13;5.05;;;20.90;82.50;;;;;;6280161;22;20027;-81
2023/08/14 06:52:05;;;;;;;7.55;4.95;;;21.20;84.80;;;;;;6281183;22;19995;-82
2023/08/14 06:54:31;;;;;;;8.55;4.70;;;21.30;86.80;;;;;;6283832;22;20082;-81
2023/08/14 06:56:57;;;;;;;10.27;4.20;;;21.50;88.10;;;;;;6283526;22;20003;-82
2023/08/14 06:59:22;;;;;;;13.40;4.68;;;21.50;90.10;;;;;;6283070;22;20000;-82
2023/08/14 07:01:48;;;;;;;8.18;3.90;;;21.60;91.80;;;;;;6283819;22;20041;-81
2023/08/14 07:04:13;;;;;;;8.55;3.75;;;21.80;95.40;;;;;;6283741;22;20010;-81
2023/08/14 07:06:42;;;;;;;6.22;3.60;;;21.90;97.70;;;;;;6282271;22;19999;-82
2023/08/14 07:09:07;;;;;;;6.90;3.75;;;22.20;98.00;;;;;;6283086;22;20015;-82
2023/08/14 07:11:38;;;;;;;7.97;3.80;;;22.50;98.00;;;;;;6282761;22;20269;-83
2023/08/14 07:14:04;;;;;;;7.00;3.75;;;22.80;98.00;;;;;;6281767;22;20003;-83
2023/08/14 07:16:30;;;;;;;7.40;3.42;;;23.10;98.00;;;;;;6282123;22;20038;-82
2023/08/14 07:18:55;;;;;;;6.35;3.70;;;23.30;98.00;;;;;;6255886;22;20007;-83
2023/08/14 07:21:21;;;;;;;7.53;3.63;;;23.40;98.00;;;;;;6254443;22;20003;-83
2023/08/14 07:23:47;;;;;;;7.18;3.53;;;23.40;98.00;;;;;;6283339;22;20007;-83
2023/08/14 07:26:12;;;;;;;7.10;3.70;;;23.30;98.00;;;;;;6282916;22;20016;-82
2023/08/14 07:28:41;;;;;;;8.10;3.53;;;23.40;98.00;;;;;;6281971;22;20000;-82
2023/08/14 07:31:07;;;;;;;7.63;3.80;;;23.60;98.00;;;;;;6282571;22;20003;-82
2023/08/14 07:33:33;;;;;;;6.20;3.38;;;23.70;98.00;;;;;;6282864;22;20303;-82
2023/08/14 07:35:59;;;;;;;7.43;3.42;;;23.90;97.60;;;;;;6282147;22;20081;-81
2023/08/14 07:38:25;;;;;;;7.00;3.30;;;24.10;97.90;;;;;;6281090;22;20004;-81
2023/08/14 07:40:51;;;;;;;7.15;3.10;;;24.30;97.80;;;;;;6253204;22;20011;-83
2023/08/14 07:43:17;;;;;;;6.38;3.13;;;24.30;97.20;;;;;;6254665;22;20007;-82
2023/08/14 07:45:43;;;;;;;4.80;2.75;;;24.30;97.40;;;;;;6281188;22;20317;-82
2023/08/14 07:48:09;;;;;;;12.95;3.38;;;24.50;96.10;;;;;;6280676;22;20070;-82
2023/08/14 07:50:35;;;;;;;5.13;2.92;;;24.90;96.20;;;;;;6278750;22;20033;-81
2023/08/14 07:53:01;;;;;;;7.20;3.05;;;25.40;95.40;;;;;;6279976;22;20396;-81
2023/08/14 07:55:26;;;;;;;8.63;3.00;;;26.00;94.50;;;;;;6281769;22;20392;-82
2023/08/14 07:57:52;;;;;;;6.60;3.00;;;26.70;94.90;;;;;;6280394;22;20007;-83
2023/08/14 08:00:18;;;;;;;6.53;2.78;;;27.20;93.10;;;;;;6280259;22;20030;-81
2023/08/14 08:02:44;;;;;;;5.78;2.90;;;27.90;91.60;;;;;;6280942;22;20018;-81
2023/08/14 08:05:10;;;;;;;6.45;2.50;;;28.50;89.50;;;;;;6279981;22;20399;-81
2023/08/14 08:07:36;;;;;;;8.25;2.70;;;29.30;85.80;;;;;;6279487;22;20074;-81
2023/08/14 08:10:02;;;;;;;7.03;2.50;;;30.10;79.50;;;;;;6281312;22;20122;-82
2023/08/14 08:12:28;;;;;;;6.85;3.03;;;30.50;79.10;;;;;;6280888;22;19995;-82
2023/08/14 08:14:55;;;;;;;6.40;2.72;;;30.90;78.20;;;;;;6253885;22;20034;-82
2023/08/14 08:17:20;;;;;;;7.13;2.58;;;31.10;76.90;;;;;;6281602;22;20008;-82
2023/08/14 08:19:46;;;;;;;5.50;2.58;;;31.20;76.20;;;;;;6253976;22;20018;-83
2023/08/14 08:22:25;;;;;;;4.85;2.50;;;31.80;76.20;;;;;;6252306;22;20369;-82
2023/08/14 08:24:51;;;;;;;5.28;2.28;;;32.30;74.30;;;;;;6280641;22;20062;-82
2023/08/14 08:27:17;;;;;;;6.88;2.53;;;32.20;74.00;;;;;;6253769;22;20003;-83
2023/08/14 08:29:45;;;;;;;4.32;2.17;;;32.50;72.30;;;;;;6253208;22;20003;-83
2023/08/14 08:32:11;;;;;;;5.53;2.67;;;32.70;73.10;;;;;;6280585;22;19996;-82
2023/08/14 08:34:36;;;;;;;6.57;2.28;;;32.80;70.80;;;;;;6280376;22;20014;-82
2023/08/14 08:37:02;;;;;;;5.18;2.20;;;32.80;70.40;;;;;;6280082;22;20000;-82
2023/08/14 08:39:27;;;;;;;5.22;2.30;;;33.40;71.40;;;;;;6279942;22;20000;-81
2023/08/14 08:41:56;;;;;;;5.05;2.00;;;33.70;70.40;;;;;;6280768;22;20027;-82
2023/08/14 08:44:25;;;;;;;4.63;2.10;;;33.20;69.80;;;;;;6279952;22;20007;-81
2023/08/14 08:47:07;;;;;;;4.43;2.35;;;33.10;70.00;;;;;;6253733;22;20008;-81
2023/08/14 08:49:34;;;;;;;6.45;2.58;;;33.10;71.00;;;;;;6280648;22;20011;-81
2023/08/14 08:52:02;;;;;;;5.00;2.50;;;33.20;70.10;;;;;;6278149;22;19996;-81
2023/08/14 08:54:28;;;;;;;5.97;2.40;;;33.40;69.10;;;;;;6254352;22;20007;-81
2023/08/14 08:56:56;;;;;;;4.45;2.58;;;33.00;70.50;;;;;;6280529;22;20261;-81
2023/08/14 08:59:22;;;;;;;5.90;2.30;;;33.10;70.80;;;;;;6280727;22;20004;-80
2023/08/14 09:01:48;;;;;;;4.40;2.30;;;33.40;73.00;;;;;;6280948;22;20007;-81
2023/08/14 09:04:14;;;;;;;6.65;2.60;;;33.20;74.00;;;;;;6227852;22;20004;-81
2023/08/14 09:06:40;;;;;;;5.55;2.53;;;33.60;76.90;;;;;;6279723;22;19999;-81
2023/08/14 09:09:06;;;;;;;4.85;2.40;;;33.70;77.40;;;;;;6278894;22;20054;-81
2023/08/14 09:11:32;;;;;;;6.18;2.38;;;33.40;77.00;;;;;;6278581;22;20372;-81
2023/08/14 09:13:58;;;;;;;5.00;2.40;;;33.20;76.70;;;;;;6278822;22;20003;-81
2023/08/14 09:16:27;;;;;;;4.93;2.47;;;33.40;75.60;;;;;;6279221;22;20003;-81
2023/08/14 09:18:57;;;;;;;4.82;2.10;;;33.50;75.50;;;;;;6279779;22;20007;-81
2023/08/14 09:21:23;;;;;;;6.95;3.20;;;33.20;76.20;;;;;;6279365;22;20072;-81
2023/08/14 09:23:50;;;;;;;5.60;2.65;;;33.20;73.50;;;;;;6251601;22;20047;-81
2023/08/14 09:26:15;;;;;;;5.97;2.40;;;33.50;74.50;;;;;;6278956;22;20078;-78
2023/08/14 09:28:41;;;;;;;4.63;2.47;;;34.00;74.10;;;;;;6279353;22;20031;-80
2023/08/14 09:31:12;;;;;;;5.63;2.42;;;33.90;71.60;;;;;;6278557;22;19995;-80
2023/08/14 09:33:39;;;;;;;7.07;2.75;;;34.40;71.80;;;;;;6278431;22;20007;-80
2023/08/14 09:36:05;;;;;;;4.63;2.17;;;34.50;69.40;;;;;;6276164;22;20000;-80
2023/08/14 09:38:31;;;;;;;6.38;2.38;;;34.80;69.10;;;;;;6279847;22;20011;-80
2023/08/14 09:40:57;;;;;;;8.38;2.85;;;34.90;67.60;;;;;;6280254;22;20098;-80
2023/08/14 09:43:27;;;;;;;5.82;2.70;;;34.90;67.80;;;;;;6279425;22;20057;-80
2023/08/14 09:45:58;;;;;;;5.65;2.58;;;34.80;68.60;;;;;;6280401;22;20367;-80
2023/08/14 09:48:41;;;;;;;4.43;2.22;;;34.60;67.00;;;;;;6280762;22;20242;-79
2023/08/14 09:51:10;;;;;;;4.43;2.47;;;34.50;67.70;;;;;;6278597;22;19999;-80
2023/08/14 09:53:56;;;;;;;4.68;2.17;;;34.70;67.70;;;;;;6279983;22;20408;-80
2023/08/14 09:56:22;;;;;;;5.90;2.30;;;35.00;67.80;;;;;;6280727;22;19999;-80
2023/08/14 09:58:49;;;;;;;8.05;2.60;;;35.40;65.10;;;;;;6253395;22;20050;-80
2023/08/14 10:01:17;;;;;;;4.30;2.42;;;35.70;65.50;;;;;;6280120;22;20315;-80
2023/08/14 10:03:51;;;;;;;7.82;2.40;;;36.00;66.00;;;;;;6280760;22;20074;-81
2023/08/14 10:06:18;;;;;;;5.18;2.30;;;36.00;65.00;;;;;;6252266;22;20399;-80
2023/08/14 10:08:46;;;;;;;5.53;2.42;;;36.20;64.40;;;;;;6279956;22;20265;-80
2023/08/14 10:11:15;;;;;;;5.85;2.45;;;35.70;64.50;;;;;;6280194;22;20006;-80
2023/08/14 10:14:00;;;;;;;6.90;2.50;;;35.50;66.70;;;;;;6280697;22;20007;-80
2023/08/14 10:16:31;;;;;;;6.90;2.40;;;35.50;66.10;;;;;;6280510;22;19996;-81
2023/08/14 10:19:00;;;;;;;5.78;2.65;;;35.30;67.60;;;;;;6280496;22;20058;-80
2023/08/14 10:21:30;;;;;;;6.18;2.47;;;36.00;66.10;;;;;;6251885;22;20000;-80
2023/08/14 10:23:59;;;;;;;6.60;2.22;;;36.10;62.40;;;;;;6280282;22;20261;-80
2023/08/14 10:26:25;;;;;;;5.80;2.50;;;36.00;63.80;;;;;;6279693;22;20257;-80
2023/08/14 10:28:53;;;;;;;5.93;2.30;;;36.50;63.60;;;;;;6278417;22;20002;-80
2023/08/14 10:31:22;;;;;;;7.97;2.60;;;37.20;64.20;;;;;;6277292;22;19996;-80
2023/08/14 10:33:48;;;;;;;5.68;2.25;;;37.40;60.90;;;;;;6279328;22;20000;-81
2023/08/14 10:36:19;;;;;;;7.35;2.38;;;37.30;60.90;;;;;;6278421;22;20004;-80
2023/08/14 10:38:46;;;;;;;4.90;2.22;;;37.70;60.10;;;;;;6280404;22;20431;-80
2023/08/14 10:41:15;;;;;;;4.82;2.60;;;38.00;58.60;;;;;;6280400;22;20377;-81
2023/08/14 10:43:41;;;;;;;5.50;2.50;;;38.10;57.90;;;;;;6252625;22;20016;-80
2023/08/14 10:46:13;;;;;;;5.00;2.38;;;37.70;60.10;;;;;;6252160;22;20008;-79
2023/08/14 10:48:40;;;;;;;6.93;2.80;;;37.40;60.50;;;;;;6279322;22;20664;-79
2023/08/14 10:51:08;;;;;;;5.30;2.45;;;36.60;61.10;;;;;;6251982;22;20456;-79
2023/08/14 10:53:34;;;;;;;7.13;2.50;;;36.30;61.60;;;;;;6280025;22;20003;-78
2023/08/14 10:56:00;;;;;;;6.53;2.70;;;36.20;63.70;;;;;;6253458;22;20086;-79
2023/08/14 10:58:31;;;;;;;5.10;2.75;;;36.30;63.50;;;;;;6279178;22;20264;-79
2023/08/14 11:01:12;;;;;;;6.57;2.83;;;36.30;62.10;;;;;;6279903;22;20008;-81
2023/08/14 11:04:05;;;;;;;4.70;2.55;;;36.20;61.30;;;;;;6252581;22;20000;-78
2023/08/14 11:06:57;;;;;;;7.95;3.22;;;36.30;60.90;;;;;;6251212;22;20014;-78
2023/08/14 11:09:22;;;;;;;5.97;3.30;;;35.90;68.70;;;;;;6232979;22;20007;-79
2023/08/14 11:11:48;;;;;;;5.78;3.08;;;35.30;71.50;;;;;;6279528;22;20012;-79
2023/08/14 11:14:14;;;;;;;6.32;3.03;;;35.10;74.20;;;;;;6273813;22;20354;-80
2023/08/14 11:16:41;;;;;;;6.97;3.08;;;34.40;74.20;;;;;;6224356;23;20000;-78
2023/08/14 11:19:06;;;;;;;6.68;3.00;;;34.40;74.10;;;;;;6251142;23;20004;-80
2023/08/14 11:21:35;;;;;;;7.20;3.10;;;34.90;74.20;;;;;;6249238;23;20387;-80
2023/08/14 11:24:09;;;;;;;5.80;2.95;;;35.20;72.80;;;;;;6249978;23;20050;-79
2023/08/14 11:26:35;;;;;;;11.57;3.30;;;35.50;72.00;;;;;;6250106;23;19996;-79
2023/08/14 11:29:01;;;;;;;6.38;3.30;;;34.90;72.10;;;;;;6224304;23;20007;-79
2023/08/14 11:31:26;;;;;;;6.55;2.88;;;33.80;73.20;;;;;;6251091;23;20004;-79
2023/08/14 11:33:52;;;;;;;5.35;3.10;;;33.60;75.40;;;;;;6251525;23;20000;-80
2023/08/14 11:36:17;;;;;;;8.07;3.40;;;33.70;77.80;;;;;;6249308;23;20008;-79
2023/08/14 11:38:43;;;;;;;9.27;3.50;;;33.90;77.40;;;;;;6223645;23;20004;-79
2023/08/14 11:41:09;;;;;;;11.02;3.88;;;33.40;77.90;;;;;;6251087;23;20071;-79
2023/08/14 11:43:37;;;;;;;5.78;3.53;;;32.70;80.10;;;;;;6224620;23;19996;-79
2023/08/14 11:46:06;;;;;;;7.70;3.40;;;32.20;81.00;;;;;;6224475;23;20140;-79
2023/08/14 11:48:32;;;;;;;7.53;3.95;;;31.60;82.30;;;;;;6250099;23;20003;-79
2023/08/14 11:51:02;;;;;;;7.10;3.35;;;31.10;83.20;;;;;;6249705;23;19996;-79
2023/08/14 11:53:28;;;;;;;6.68;3.67;;;30.40;85.40;;;;;;6251005;23;20372;-78
2023/08/14 11:55:54;;;;;;;8.50;3.60;;;30.00;85.90;;;;;;6224253;23;20019;-79
2023/08/14 11:58:19;;;;;;;7.15;3.90;;;29.60;87.30;;;;;;6250752;23;20392;-79
2023/08/14 12:00:50;;;;;;;9.43;4.38;;;29.40;87.90;;;;;;6250312;23;20077;-79
2023/08/14 12:03:16;;;;;;;9.63;4.13;;;29.10;89.50;;;;;;6250087;23;20365;-79
2023/08/14 12:05:44;;;;;;;6.95;4.47;;;28.70;90.70;;;;;;6249570;23;20099;-79
2023/08/14 12:08:11;;;;;;;6.80;3.80;;;28.30;92.10;;;;;;6223339;23;20269;-79
2023/08/14 12:10:39;;;;;;;7.78;4.50;;;27.90;92.90;;;;;;6243336;23;20004;-78
2023/08/14 12:13:05;;;;;;;13.30;4.63;;;27.70;93.30;;;;;;6246455;23;20000;-78
2023/08/14 12:15:31;;;;;;;7.88;4.75;;;27.30;94.20;;;;;;6246469;23;20421;-77
2023/08/14 12:17:57;;;;;;;8.10;4.78;;;27.10;94.50;;;;;;6220092;23;20008;-78
2023/08/14 12:20:22;;;;;;;7.65;4.70;;;26.90;95.00;;;;;;6245132;23;20034;-78
2023/08/14 12:22:48;;;;;;;11.25;4.70;;;26.70;95.10;;;;;;6249497;23;20008;-78
2023/08/14 12:25:18;;;;;;;14.20;5.60;;;26.50;96.00;;;;;;6250356;23;20091;-79
2023/08/14 12:27:44;;;;;;;20.38;6.05;;;26.00;94.90;;;;;;6251009;23;20007;-91
2023/08/14 12:30:11;;;;;;;18.88;7.47;;;25.20;92.70;;;;;;6250447;23;20004;-87
2023/08/14 12:32:45;;;;;;;31.67;9.82;;;24.30;87.10;;;;;;6250395;23;20370;-80
2023/08/14 12:35:10;;;;;;;15.35;7.13;;;23.50;83.70;;;;;;6250845;23;20012;-77
2023/08/14 12:37:36;;;;;;;14.68;6.47;;;22.70;85.70;;;;;;6248871;23;20015;-77
2023/08/14 12:40:08;;;;;;;14.55;6.72;;;22.10;81.50;;;;;;6250631;23;20024;-78
2023/08/14 12:42:34;;;;;;;16.25;7.65;;;21.60;83.80;;;;;;6250939;23;20028;-76